sensor_id;sensor_type;location;lat;lon;timestamp;temperature;humidity
37782;DHT22;23621;50.878;4.584;2022-11-27T00:01:17;14.40;71.90
37782;DHT22;23621;50.878;4.584;2022-11-27T00:03:44;14.50;72.00
37782;DHT22;23621;50.878;4.584;2022-11-27T00:06:17;14.50;71.90
37782;DHT22;23621;50.878;4.584;2022-11-27T00:08:45;14.50;71.80
37782;DHT22;23621;50.878;4.584;2022-11-27T00:11:18;14.50;71.60
37782;DHT22;23621;50.878;4.584;2022-11-27T00:13:46;14.50;71.70
37782;DHT22;23621;50.878;4.584;2022-11-27T00:16:14;14.50;71.80
37782;DHT22;23621;50.878;4.584;2022-11-27T00:18:41;14.50;71.70
37782;DHT22;23621;50.878;4.584;2022-11-27T00:21:14;14.50;71.70
37782;DHT22;23621;50.878;4.584;2022-11-27T00:23:42;14.50;71.70
37782;DHT22;23621;50.878;4.584;2022-11-27T00:26:09;14.50;71.60
37782;DHT22;23621;50.878;4.584;2022-11-27T00:28:37;14.50;71.70
37782;DHT22;23621;50.878;4.584;2022-11-27T00:31:12;14.60;71.60
37782;DHT22;23621;50.878;4.584;2022-11-27T00:33:39;14.60;71.60
37782;DHT22;23621;50.878;4.584;2022-11-27T00:36:07;14.60;71.50
37782;DHT22;23621;50.878;4.584;2022-11-27T00:38:34;14.60;71.50
37782;DHT22;23621;50.878;4.584;2022-11-27T00:41:06;14.50;71.40
37782;DHT22;23621;50.878;4.584;2022-11-27T00:43:34;14.60;71.40
37782;DHT22;23621;50.878;4.584;2022-11-27T00:46:10;14.50;71.30
37782;DHT22;23621;50.878;4.584;2022-11-27T00:48:37;14.50;71.30
37782;DHT22;23621;50.878;4.584;2022-11-27T00:51:06;14.40;71.20
37782;DHT22;23621;50.878;4.584;2022-11-27T00:53:34;14.40;71.30
37782;DHT22;23621;50.878;4.584;2022-11-27T00:56:01;14.40;71.30
37782;DHT22;23621;50.878;4.584;2022-11-27T00:58:28;14.30;71.40
37782;DHT22;23621;50.878;4.584;2022-11-27T01:01:01;14.40;71.50
37782;DHT22;23621;50.878;4.584;2022-11-27T01:03:28;14.40;71.50
37782;DHT22;23621;50.878;4.584;2022-11-27T01:05:55;14.40;71.40
37782;DHT22;23621;50.878;4.584;2022-11-27T01:08:22;14.40;71.30
37782;DHT22;23621;50.878;4.584;2022-11-27T01:10:54;14.50;71.40
37782;DHT22;23621;50.878;4.584;2022-11-27T01:13:26;14.50;71.30
37782;DHT22;23621;50.878;4.584;2022-11-27T01:16:14;14.50;71.20
37782;DHT22;23621;50.878;4.584;2022-11-27T01:18:43;14.50;71.10
37782;DHT22;23621;50.878;4.584;2022-11-27T01:21:12;14.50;71.00
37782;DHT22;23621;50.878;4.584;2022-11-27T01:23:39;14.50;71.00
37782;DHT22;23621;50.878;4.584;2022-11-27T01:26:08;14.50;70.90
37782;DHT22;23621;50.878;4.584;2022-11-27T01:28:35;14.50;71.00
37782;DHT22;23621;50.878;4.584;2022-11-27T01:31:15;14.50;71.00
37782;DHT22;23621;50.878;4.584;2022-11-27T01:33:43;14.50;71.00
37782;DHT22;23621;50.878;4.584;2022-11-27T01:36:13;14.50;71.00
37782;DHT22;23621;50.878;4.584;2022-11-27T01:38:40;14.50;71.00
37782;DHT22;23621;50.878;4.584;2022-11-27T01:41:16;14.50;70.90
37782;DHT22;23621;50.878;4.584;2022-11-27T01:43:45;14.50;70.90
37782;DHT22;23621;50.878;4.584;2022-11-27T01:48:54;14.50;70.80
37782;DHT22;23621;50.878;4.584;2022-11-27T01:51:22;14.40;70.70
37782;DHT22;23621;50.878;4.584;2022-11-27T01:53:51;14.50;70.70
37782;DHT22;23621;50.878;4.584;2022-11-27T01:56:19;14.50;70.70
37782;DHT22;23621;50.878;4.584;2022-11-27T01:58:47;14.50;70.70
37782;DHT22;23621;50.878;4.584;2022-11-27T02:01:15;14.40;70.40
37782;DHT22;23621;50.878;4.584;2022-11-27T02:03:42;14.50;70.50
37782;DHT22;23621;50.878;4.584;2022-11-27T02:06:12;14.40;70.30
37782;DHT22;23621;50.878;4.584;2022-11-27T02:08:40;14.50;70.50
37782;DHT22;23621;50.878;4.584;2022-11-27T02:14:18;14.50;70.30
37782;DHT22;23621;50.878;4.584;2022-11-27T02:17:02;14.40;70.20
37782;DHT22;23621;50.878;4.584;2022-11-27T02:26:10;14.40;70.00
37782;DHT22;23621;50.878;4.584;2022-11-27T02:31:37;14.40;69.80
37782;DHT22;23621;50.878;4.584;2022-11-27T02:34:14;14.40;69.80
37782;DHT22;23621;50.878;4.584;2022-11-27T02:36:49;14.40;69.70
37782;DHT22;23621;50.878;4.584;2022-11-27T02:39:24;14.40;69.70
37782;DHT22;23621;50.878;4.584;2022-11-27T02:41:58;14.40;69.70
37782;DHT22;23621;50.878;4.584;2022-11-27T02:44:30;14.40;69.60
37782;DHT22;23621;50.878;4.584;2022-11-27T02:46:58;14.40;69.50
37782;DHT22;23621;50.878;4.584;2022-11-27T02:49:26;14.40;69.30
37782;DHT22;23621;50.878;4.584;2022-11-27T02:51:56;14.40;69.20
37782;DHT22;23621;50.878;4.584;2022-11-27T02:54:27;14.40;69.20
37782;DHT22;23621;50.878;4.584;2022-11-27T02:56:56;14.50;69.20
37782;DHT22;23621;50.878;4.584;2022-11-27T02:59:27;14.50;69.00
37782;DHT22;23621;50.878;4.584;2022-11-27T03:02:02;14.40;68.90
37782;DHT22;23621;50.878;4.584;2022-11-27T03:04:34;14.40;68.80
37782;DHT22;23621;50.878;4.584;2022-11-27T03:07:07;14.40;68.80
37782;DHT22;23621;50.878;4.584;2022-11-27T03:09:46;14.40;68.80
37782;DHT22;23621;50.878;4.584;2022-11-27T03:12:16;14.40;68.50
37782;DHT22;23621;50.878;4.584;2022-11-27T03:14:44;14.40;68.60
37782;DHT22;23621;50.878;4.584;2022-11-27T03:17:22;14.40;68.50
37782;DHT22;23621;50.878;4.584;2022-11-27T03:20:06;14.40;68.50
37782;DHT22;23621;50.878;4.584;2022-11-27T03:22:34;14.50;68.50
37782;DHT22;23621;50.878;4.584;2022-11-27T03:25:01;14.50;68.40
37782;DHT22;23621;50.878;4.584;2022-11-27T03:27:38;14.50;68.30
37782;DHT22;23621;50.878;4.584;2022-11-27T03:30:08;14.50;68.30
37782;DHT22;23621;50.878;4.584;2022-11-27T03:32:35;14.50;68.40
37782;DHT22;23621;50.878;4.584;2022-11-27T03:35:04;14.50;68.10
37782;DHT22;23621;50.878;4.584;2022-11-27T03:37:33;14.50;68.20
37782;DHT22;23621;50.878;4.584;2022-11-27T03:40:01;14.50;68.10
37782;DHT22;23621;50.878;4.584;2022-11-27T03:43:07;14.50;68.10
37782;DHT22;23621;50.878;4.584;2022-11-27T03:45:57;14.50;68.10
37782;DHT22;23621;50.878;4.584;2022-11-27T03:51:20;14.50;68.20
37782;DHT22;23621;50.878;4.584;2022-11-27T03:54:11;14.50;68.10
37782;DHT22;23621;50.878;4.584;2022-11-27T03:56:47;14.50;68.10
37782;DHT22;23621;50.878;4.584;2022-11-27T03:59:21;14.50;68.10
37782;DHT22;23621;50.878;4.584;2022-11-27T04:01:49;14.50;68.10
37782;DHT22;23621;50.878;4.584;2022-11-27T04:04:16;14.50;68.00
37782;DHT22;23621;50.878;4.584;2022-11-27T04:06:43;14.50;68.10
37782;DHT22;23621;50.878;4.584;2022-11-27T04:09:10;14.50;68.10
37782;DHT22;23621;50.878;4.584;2022-11-27T04:11:37;14.50;68.10
37782;DHT22;23621;50.878;4.584;2022-11-27T04:14:04;14.60;68.20
37782;DHT22;23621;50.878;4.584;2022-11-27T04:16:33;14.60;68.30
37782;DHT22;23621;50.878;4.584;2022-11-27T04:19:00;14.60;68.20
37782;DHT22;23621;50.878;4.584;2022-11-27T04:21:27;14.60;68.20
37782;DHT22;23621;50.878;4.584;2022-11-27T04:23:54;14.70;68.30
37782;DHT22;23621;50.878;4.584;2022-11-27T04:26:21;14.70;68.30
37782;DHT22;23621;50.878;4.584;2022-11-27T04:28:49;14.70;68.30
37782;DHT22;23621;50.878;4.584;2022-11-27T04:31:15;14.70;68.20
37782;DHT22;23621;50.878;4.584;2022-11-27T04:33:42;14.70;68.20
37782;DHT22;23621;50.878;4.584;2022-11-27T04:36:09;14.80;68.30
37782;DHT22;23621;50.878;4.584;2022-11-27T04:38:36;14.80;68.20
37782;DHT22;23621;50.878;4.584;2022-11-27T04:41:03;14.80;68.20
37782;DHT22;23621;50.878;4.584;2022-11-27T04:43:30;14.80;68.20
37782;DHT22;23621;50.878;4.584;2022-11-27T04:45:57;14.80;68.20
37782;DHT22;23621;50.878;4.584;2022-11-27T04:48:24;14.70;68.20
37782;DHT22;23621;50.878;4.584;2022-11-27T04:50:53;14.70;68.20
37782;DHT22;23621;50.878;4.584;2022-11-27T04:53:20;14.70;68.30
37782;DHT22;23621;50.878;4.584;2022-11-27T04:55:47;14.70;68.30
37782;DHT22;23621;50.878;4.584;2022-11-27T04:58:14;14.70;68.30
37782;DHT22;23621;50.878;4.584;2022-11-27T05:00:41;14.80;68.40
37782;DHT22;23621;50.878;4.584;2022-11-27T05:03:08;14.70;68.40
37782;DHT22;23621;50.878;4.584;2022-11-27T05:05:35;14.70;68.30
37782;DHT22;23621;50.878;4.584;2022-11-27T05:08:01;14.80;68.50
37782;DHT22;23621;50.878;4.584;2022-11-27T05:10:28;14.80;68.50
37782;DHT22;23621;50.878;4.584;2022-11-27T05:12:55;14.80;68.50
37782;DHT22;23621;50.878;4.584;2022-11-27T05:15:22;14.80;68.60
37782;DHT22;23621;50.878;4.584;2022-11-27T05:17:49;14.80;68.70
37782;DHT22;23621;50.878;4.584;2022-11-27T05:20:16;14.80;68.70
37782;DHT22;23621;50.878;4.584;2022-11-27T05:22:43;14.80;68.70
37782;DHT22;23621;50.878;4.584;2022-11-27T05:25:11;14.80;68.80
37782;DHT22;23621;50.878;4.584;2022-11-27T05:27:38;14.80;68.80
37782;DHT22;23621;50.878;4.584;2022-11-27T05:30:06;14.80;68.90
37782;DHT22;23621;50.878;4.584;2022-11-27T05:32:33;14.80;69.00
37782;DHT22;23621;50.878;4.584;2022-11-27T05:34:59;14.80;69.00
37782;DHT22;23621;50.878;4.584;2022-11-27T05:37:26;14.80;69.00
37782;DHT22;23621;50.878;4.584;2022-11-27T05:39:53;14.80;69.10
37782;DHT22;23621;50.878;4.584;2022-11-27T05:42:20;14.80;69.10
37782;DHT22;23621;50.878;4.584;2022-11-27T05:44:47;14.80;69.10
37782;DHT22;23621;50.878;4.584;2022-11-27T05:47:14;14.80;69.20
37782;DHT22;23621;50.878;4.584;2022-11-27T05:49:40;14.70;69.20
37782;DHT22;23621;50.878;4.584;2022-11-27T05:52:07;14.70;69.30
37782;DHT22;23621;50.878;4.584;2022-11-27T05:54:34;14.60;69.30
37782;DHT22;23621;50.878;4.584;2022-11-27T05:57:01;14.60;69.50
37782;DHT22;23621;50.878;4.584;2022-11-27T05:59:28;14.60;69.60
37782;DHT22;23621;50.878;4.584;2022-11-27T06:01:55;14.50;69.70
37782;DHT22;23621;50.878;4.584;2022-11-27T06:04:24;14.50;69.80
37782;DHT22;23621;50.878;4.584;2022-11-27T06:06:51;14.50;69.80
37782;DHT22;23621;50.878;4.584;2022-11-27T06:09:18;14.50;70.00
37782;DHT22;23621;50.878;4.584;2022-11-27T06:11:45;14.50;70.10
37782;DHT22;23621;50.878;4.584;2022-11-27T06:14:12;14.50;70.20
37782;DHT22;23621;50.878;4.584;2022-11-27T06:16:39;14.50;70.20
37782;DHT22;23621;50.878;4.584;2022-11-27T06:19:07;14.40;70.20
37782;DHT22;23621;50.878;4.584;2022-11-27T06:21:34;14.40;70.30
37782;DHT22;23621;50.878;4.584;2022-11-27T06:24:01;14.40;70.30
37782;DHT22;23621;50.878;4.584;2022-11-27T06:26:30;14.40;70.40
37782;DHT22;23621;50.878;4.584;2022-11-27T06:28:59;14.40;70.50
37782;DHT22;23621;50.878;4.584;2022-11-27T06:31:30;14.50;70.60
37782;DHT22;23621;50.878;4.584;2022-11-27T06:33:58;14.50;70.60
37782;DHT22;23621;50.878;4.584;2022-11-27T06:36:34;14.50;70.60
37782;DHT22;23621;50.878;4.584;2022-11-27T06:39:03;14.50;70.60
37782;DHT22;23621;50.878;4.584;2022-11-27T06:41:31;14.50;70.60
37782;DHT22;23621;50.878;4.584;2022-11-27T06:43:59;14.50;70.60
37782;DHT22;23621;50.878;4.584;2022-11-27T06:46:27;14.50;70.60
37782;DHT22;23621;50.878;4.584;2022-11-27T06:48:56;14.50;70.60
37782;DHT22;23621;50.878;4.584;2022-11-27T06:51:26;14.50;70.70
37782;DHT22;23621;50.878;4.584;2022-11-27T06:53:53;14.50;70.70
37782;DHT22;23621;50.878;4.584;2022-11-27T06:56:23;14.50;70.70
37782;DHT22;23621;50.878;4.584;2022-11-27T06:58:55;14.50;70.70
37782;DHT22;23621;50.878;4.584;2022-11-27T07:01:24;14.50;70.70
37782;DHT22;23621;50.878;4.584;2022-11-27T07:03:51;14.50;70.70
37782;DHT22;23621;50.878;4.584;2022-11-27T07:06:21;14.50;70.70
37782;DHT22;23621;50.878;4.584;2022-11-27T07:08:48;14.50;70.70
37782;DHT22;23621;50.878;4.584;2022-11-27T07:11:23;14.50;70.70
37782;DHT22;23621;50.878;4.584;2022-11-27T07:13:52;14.60;70.80
37782;DHT22;23621;50.878;4.584;2022-11-27T07:16:19;14.50;70.70
37782;DHT22;23621;50.878;4.584;2022-11-27T07:18:52;14.50;70.70
37782;DHT22;23621;50.878;4.584;2022-11-27T07:21:20;14.50;70.70
37782;DHT22;23621;50.878;4.584;2022-11-27T07:23:47;14.50;70.80
37782;DHT22;23621;50.878;4.584;2022-11-27T07:26:23;14.50;70.70
37782;DHT22;23621;50.878;4.584;2022-11-27T07:28:50;14.50;70.80
37782;DHT22;23621;50.878;4.584;2022-11-27T07:31:19;14.50;70.70
37782;DHT22;23621;50.878;4.584;2022-11-27T07:33:47;14.60;70.90
37782;DHT22;23621;50.878;4.584;2022-11-27T07:36:16;14.60;70.70
37782;DHT22;23621;50.878;4.584;2022-11-27T07:38:44;14.60;70.70
37782;DHT22;23621;50.878;4.584;2022-11-27T07:41:12;14.60;70.60
37782;DHT22;23621;50.878;4.584;2022-11-27T07:43:41;14.60;70.60
37782;DHT22;23621;50.878;4.584;2022-11-27T07:46:20;14.70;70.70
37782;DHT22;23621;50.878;4.584;2022-11-27T07:48:48;14.70;70.60
37782;DHT22;23621;50.878;4.584;2022-11-27T07:51:18;14.70;70.60
37782;DHT22;23621;50.878;4.584;2022-11-27T07:53:45;14.70;70.60
37782;DHT22;23621;50.878;4.584;2022-11-27T07:56:14;14.70;70.60
37782;DHT22;23621;50.878;4.584;2022-11-27T07:58:41;14.70;70.50
37782;DHT22;23621;50.878;4.584;2022-11-27T08:01:13;14.70;70.40
37782;DHT22;23621;50.878;4.584;2022-11-27T08:03:40;14.80;70.50
37782;DHT22;23621;50.878;4.584;2022-11-27T08:08:41;14.80;70.50
37782;DHT22;23621;50.878;4.584;2022-11-27T08:11:26;14.80;70.50
37782;DHT22;23621;50.878;4.584;2022-11-27T08:13:57;14.80;70.50
37782;DHT22;23621;50.878;4.584;2022-11-27T08:16:24;14.80;70.50
37782;DHT22;23621;50.878;4.584;2022-11-27T08:18:51;14.80;70.50
37782;DHT22;23621;50.878;4.584;2022-11-27T08:21:18;14.80;70.40
37782;DHT22;23621;50.878;4.584;2022-11-27T08:23:45;14.80;70.40
37782;DHT22;23621;50.878;4.584;2022-11-27T08:26:14;14.90;70.40
37782;DHT22;23621;50.878;4.584;2022-11-27T08:28:42;14.90;70.40
37782;DHT22;23621;50.878;4.584;2022-11-27T08:31:10;14.90;70.40
37782;DHT22;23621;50.878;4.584;2022-11-27T08:33:37;14.90;70.40
37782;DHT22;23621;50.878;4.584;2022-11-27T08:36:05;14.90;70.30
37782;DHT22;23621;50.878;4.584;2022-11-27T08:38:37;15.00;70.40
37782;DHT22;23621;50.878;4.584;2022-11-27T08:41:05;14.90;70.20
37782;DHT22;23621;50.878;4.584;2022-11-27T08:43:33;14.90;70.30
37782;DHT22;23621;50.878;4.584;2022-11-27T08:46:03;14.90;70.30
37782;DHT22;23621;50.878;4.584;2022-11-27T08:48:30;15.00;70.30
37782;DHT22;23621;50.878;4.584;2022-11-27T08:50:57;15.00;70.10
37782;DHT22;23621;50.878;4.584;2022-11-27T08:53:24;15.00;70.10
37782;DHT22;23621;50.878;4.584;2022-11-27T08:55:51;15.00;70.00
37782;DHT22;23621;50.878;4.584;2022-11-27T08:58:18;15.00;70.00
37782;DHT22;23621;50.878;4.584;2022-11-27T09:00:45;15.00;70.00
37782;DHT22;23621;50.878;4.584;2022-11-27T09:03:12;15.00;70.00
37782;DHT22;23621;50.878;4.584;2022-11-27T09:05:42;15.00;70.00
37782;DHT22;23621;50.878;4.584;2022-11-27T09:08:10;15.10;70.00
37782;DHT22;23621;50.878;4.584;2022-11-27T09:10:42;15.10;70.00
37782;DHT22;23621;50.878;4.584;2022-11-27T09:13:08;15.10;69.90
37782;DHT22;23621;50.878;4.584;2022-11-27T09:15:35;15.10;69.90
37782;DHT22;23621;50.878;4.584;2022-11-27T09:18:02;15.10;70.00
37782;DHT22;23621;50.878;4.584;2022-11-27T09:20:29;15.10;69.90
37782;DHT22;23621;50.878;4.584;2022-11-27T09:22:57;15.10;69.90
37782;DHT22;23621;50.878;4.584;2022-11-27T09:25:26;15.20;70.00
37782;DHT22;23621;50.878;4.584;2022-11-27T09:27:52;15.10;69.90
37782;DHT22;23621;50.878;4.584;2022-11-27T09:30:19;15.20;70.00
37782;DHT22;23621;50.878;4.584;2022-11-27T09:32:46;15.10;69.90
37782;DHT22;23621;50.878;4.584;2022-11-27T09:35:13;15.10;70.00
37782;DHT22;23621;50.878;4.584;2022-11-27T09:37:40;15.10;70.00
37782;DHT22;23621;50.878;4.584;2022-11-27T09:40:12;15.10;70.00
37782;DHT22;23621;50.878;4.584;2022-11-27T09:42:54;15.20;70.10
37782;DHT22;23621;50.878;4.584;2022-11-27T09:45:25;15.10;70.00
37782;DHT22;23621;50.878;4.584;2022-11-27T09:47:57;15.20;70.20
37782;DHT22;23621;50.878;4.584;2022-11-27T09:50:29;15.10;70.00
37782;DHT22;23621;50.878;4.584;2022-11-27T09:53:00;15.10;70.10
37782;DHT22;23621;50.878;4.584;2022-11-27T09:55:37;15.10;70.10
37782;DHT22;23621;50.878;4.584;2022-11-27T09:58:05;15.20;70.40
37782;DHT22;23621;50.878;4.584;2022-11-27T10:00:32;15.10;71.00
37782;DHT22;23621;50.878;4.584;2022-11-27T10:02:59;15.20;70.30
37782;DHT22;23621;50.878;4.584;2022-11-27T10:06:02;15.20;70.40
37782;DHT22;23621;50.878;4.584;2022-11-27T10:11:23;15.20;70.60
37782;DHT22;23621;50.878;4.584;2022-11-27T10:17:01;15.20;70.60
37782;DHT22;23621;50.878;4.584;2022-11-27T10:19:51;15.20;70.60
37782;DHT22;23621;50.878;4.584;2022-11-27T10:30:18;15.20;70.90
37782;DHT22;23621;50.878;4.584;2022-11-27T10:32:48;15.10;70.90
37782;DHT22;23621;50.878;4.584;2022-11-27T10:35:27;15.10;70.90
37782;DHT22;23621;50.878;4.584;2022-11-27T10:38:13;15.10;71.00
37782;DHT22;23621;50.878;4.584;2022-11-27T10:40:49;15.10;71.00
37782;DHT22;23621;50.878;4.584;2022-11-27T10:43:23;15.20;71.00
37782;DHT22;23621;50.878;4.584;2022-11-27T10:48:23;15.20;71.00
37782;DHT22;23621;50.878;4.584;2022-11-27T10:50:50;15.30;71.10
37782;DHT22;23621;50.878;4.584;2022-11-27T10:53:34;15.30;71.10
37782;DHT22;23621;50.878;4.584;2022-11-27T11:01:28;15.40;71.20
37782;DHT22;23621;50.878;4.584;2022-11-27T11:04:07;15.40;71.30
37782;DHT22;23621;50.878;4.584;2022-11-27T11:06:55;15.40;71.30
37782;DHT22;23621;50.878;4.584;2022-11-27T11:09:28;15.50;71.40
37782;DHT22;23621;50.878;4.584;2022-11-27T11:12:15;15.50;71.30
37782;DHT22;23621;50.878;4.584;2022-11-27T11:14:52;15.60;71.40
37782;DHT22;23621;50.878;4.584;2022-11-27T11:17:27;15.60;71.40
37782;DHT22;23621;50.878;4.584;2022-11-27T11:19:56;15.60;71.40
37782;DHT22;23621;50.878;4.584;2022-11-27T11:22:27;15.60;71.40
37782;DHT22;23621;50.878;4.584;2022-11-27T11:24:55;15.60;71.40
37782;DHT22;23621;50.878;4.584;2022-11-27T11:27:26;15.60;71.30
37782;DHT22;23621;50.878;4.584;2022-11-27T11:29:59;15.60;71.40
37782;DHT22;23621;50.878;4.584;2022-11-27T11:32:38;15.60;71.40
37782;DHT22;23621;50.878;4.584;2022-11-27T11:37:52;15.70;71.60
37782;DHT22;23621;50.878;4.584;2022-11-27T11:40:21;15.70;71.50
37782;DHT22;23621;50.878;4.584;2022-11-27T11:42:57;15.70;71.40
37782;DHT22;23621;50.878;4.584;2022-11-27T11:45:28;15.80;71.50
37782;DHT22;23621;50.878;4.584;2022-11-27T11:48:18;15.80;71.50
37782;DHT22;23621;50.878;4.584;2022-11-27T11:51:16;15.90;71.40
37782;DHT22;23621;50.878;4.584;2022-11-27T11:56:59;16.00;71.20
37782;DHT22;23621;50.878;4.584;2022-11-27T11:59:41;16.00;71.10
37782;DHT22;23621;50.878;4.584;2022-11-27T12:19:22;15.90;70.60
37782;DHT22;23621;50.878;4.584;2022-11-27T12:30:18;15.90;70.40
37782;DHT22;23621;50.878;4.584;2022-11-27T12:38:50;16.00;70.30
37782;DHT22;23621;50.878;4.584;2022-11-27T12:41:42;15.90;70.20
37782;DHT22;23621;50.878;4.584;2022-11-27T12:47:00;16.00;70.20
37782;DHT22;23621;50.878;4.584;2022-11-27T12:49:36;16.00;70.20
37782;DHT22;23621;50.878;4.584;2022-11-27T12:52:19;16.00;70.10
37782;DHT22;23621;50.878;4.584;2022-11-27T12:58:15;16.00;69.90
37782;DHT22;23621;50.878;4.584;2022-11-27T13:00:47;16.00;69.90
37782;DHT22;23621;50.878;4.584;2022-11-27T13:03:21;16.00;69.80
37782;DHT22;23621;50.878;4.584;2022-11-27T13:06:07;16.00;69.90
37782;DHT22;23621;50.878;4.584;2022-11-27T13:08:50;16.00;69.80
37782;DHT22;23621;50.878;4.584;2022-11-27T13:11:23;16.00;69.80
37782;DHT22;23621;50.878;4.584;2022-11-27T13:13:56;16.00;69.80
37782;DHT22;23621;50.878;4.584;2022-11-27T13:19:08;16.00;69.70
37782;DHT22;23621;50.878;4.584;2022-11-27T13:21:38;16.00;69.80
37782;DHT22;23621;50.878;4.584;2022-11-27T13:24:11;16.00;69.80
37782;DHT22;23621;50.878;4.584;2022-11-27T13:27:02;16.00;69.80
37782;DHT22;23621;50.878;4.584;2022-11-27T13:29:38;16.00;69.80
37782;DHT22;23621;50.878;4.584;2022-11-27T13:32:08;16.00;69.80
37782;DHT22;23621;50.878;4.584;2022-11-27T13:34:45;16.00;69.80
37782;DHT22;23621;50.878;4.584;2022-11-27T13:42:33;16.00;69.70
37782;DHT22;23621;50.878;4.584;2022-11-27T13:45:05;16.00;69.70
37782;DHT22;23621;50.878;4.584;2022-11-27T13:47:39;16.00;69.70
37782;DHT22;23621;50.878;4.584;2022-11-27T13:50:13;16.00;69.60
37782;DHT22;23621;50.878;4.584;2022-11-27T13:53:01;16.00;69.60
37782;DHT22;23621;50.878;4.584;2022-11-27T13:55:34;16.00;69.70
37782;DHT22;23621;50.878;4.584;2022-11-27T13:58:02;16.00;69.70
37782;DHT22;23621;50.878;4.584;2022-11-27T14:00:38;16.00;70.40
37782;DHT22;23621;50.878;4.584;2022-11-27T14:03:06;16.00;69.60
37782;DHT22;23621;50.878;4.584;2022-11-27T14:05:39;16.00;69.90
37782;DHT22;23621;50.878;4.584;2022-11-27T14:11:07;16.00;69.50
37782;DHT22;23621;50.878;4.584;2022-11-27T14:13:41;16.00;69.30
37782;DHT22;23621;50.878;4.584;2022-11-27T14:16:30;16.00;69.40
37782;DHT22;23621;50.878;4.584;2022-11-27T14:22:00;16.00;69.20
37782;DHT22;23621;50.878;4.584;2022-11-27T14:24:39;16.00;69.10
37782;DHT22;23621;50.878;4.584;2022-11-27T14:27:21;16.00;69.00
37782;DHT22;23621;50.878;4.584;2022-11-27T14:29:49;16.00;69.00
37782;DHT22;23621;50.878;4.584;2022-11-27T14:32:18;16.00;69.00
37782;DHT22;23621;50.878;4.584;2022-11-27T14:34:46;16.00;69.00
37782;DHT22;23621;50.878;4.584;2022-11-27T14:37:25;15.90;69.00
37782;DHT22;23621;50.878;4.584;2022-11-27T14:39:53;16.00;69.20
37782;DHT22;23621;50.878;4.584;2022-11-27T14:42:25;16.00;69.20
37782;DHT22;23621;50.878;4.584;2022-11-27T14:45:09;16.00;70.00
37782;DHT22;23621;50.878;4.584;2022-11-27T14:47:38;15.90;69.20
37782;DHT22;23621;50.878;4.584;2022-11-27T14:50:10;15.90;69.20
37782;DHT22;23621;50.878;4.584;2022-11-27T14:52:40;15.90;69.30
37782;DHT22;23621;50.878;4.584;2022-11-27T14:55:13;15.80;69.30
37782;DHT22;23621;50.878;4.584;2022-11-27T14:57:42;15.80;69.30
37782;DHT22;23621;50.878;4.584;2022-11-27T15:00:21;15.80;69.50
37782;DHT22;23621;50.878;4.584;2022-11-27T15:02:50;15.80;69.50
37782;DHT22;23621;50.878;4.584;2022-11-27T15:05:19;15.70;69.40
37782;DHT22;23621;50.878;4.584;2022-11-27T15:07:48;15.70;69.40
37782;DHT22;23621;50.878;4.584;2022-11-27T15:12:49;15.80;69.50
37782;DHT22;23621;50.878;4.584;2022-11-27T15:15:21;15.80;69.40
37782;DHT22;23621;50.878;4.584;2022-11-27T15:17:55;15.90;69.50
37782;DHT22;23621;50.878;4.584;2022-11-27T15:20:36;15.90;69.30
37782;DHT22;23621;50.878;4.584;2022-11-27T15:26:11;15.90;69.20
37782;DHT22;23621;50.878;4.584;2022-11-27T15:28:51;15.80;69.10
37782;DHT22;23621;50.878;4.584;2022-11-27T15:31:36;15.80;69.00
37782;DHT22;23621;50.878;4.584;2022-11-27T15:36:41;15.70;69.10
37782;DHT22;23621;50.878;4.584;2022-11-27T15:39:45;15.70;69.10
37782;DHT22;23621;50.878;4.584;2022-11-27T15:42:12;15.70;69.20
37782;DHT22;23621;50.878;4.584;2022-11-27T15:44:40;15.70;69.20
37782;DHT22;23621;50.878;4.584;2022-11-27T15:47:28;15.70;69.30
37782;DHT22;23621;50.878;4.584;2022-11-27T15:49:55;15.60;69.20
37782;DHT22;23621;50.878;4.584;2022-11-27T15:52:23;15.60;69.20
37782;DHT22;23621;50.878;4.584;2022-11-27T15:54:50;15.60;69.30
37782;DHT22;23621;50.878;4.584;2022-11-27T15:57:20;15.60;69.30
37782;DHT22;23621;50.878;4.584;2022-11-27T15:59:47;15.60;69.40
37782;DHT22;23621;50.878;4.584;2022-11-27T16:02:14;15.60;69.50
37782;DHT22;23621;50.878;4.584;2022-11-27T16:04:44;15.60;69.50
37782;DHT22;23621;50.878;4.584;2022-11-27T16:07:11;15.50;69.50
37782;DHT22;23621;50.878;4.584;2022-11-27T16:09:38;15.60;69.60
37782;DHT22;23621;50.878;4.584;2022-11-27T16:12:05;15.60;69.60
37782;DHT22;23621;50.878;4.584;2022-11-27T16:14:32;15.60;69.70
37782;DHT22;23621;50.878;4.584;2022-11-27T16:16:59;15.60;69.70
37782;DHT22;23621;50.878;4.584;2022-11-27T16:19:27;15.60;69.80
37782;DHT22;23621;50.878;4.584;2022-11-27T16:21:54;15.60;69.80
37782;DHT22;23621;50.878;4.584;2022-11-27T16:24:22;15.50;69.80
37782;DHT22;23621;50.878;4.584;2022-11-27T16:26:49;15.50;69.90
37782;DHT22;23621;50.878;4.584;2022-11-27T16:29:16;15.50;69.90
37782;DHT22;23621;50.878;4.584;2022-11-27T16:31:43;15.50;70.00
37782;DHT22;23621;50.878;4.584;2022-11-27T16:34:10;15.50;70.10
37782;DHT22;23621;50.878;4.584;2022-11-27T16:36:39;15.60;70.20
37782;DHT22;23621;50.878;4.584;2022-11-27T16:39:07;15.60;70.30
37782;DHT22;23621;50.878;4.584;2022-11-27T16:41:34;15.60;70.30
37782;DHT22;23621;50.878;4.584;2022-11-27T16:44:09;15.60;70.30
37782;DHT22;23621;50.878;4.584;2022-11-27T16:46:36;15.60;70.40
37782;DHT22;23621;50.878;4.584;2022-11-27T16:49:05;15.60;70.40
37782;DHT22;23621;50.878;4.584;2022-11-27T16:51:33;15.60;70.60
37782;DHT22;23621;50.878;4.584;2022-11-27T16:54:02;15.50;70.60
37782;DHT22;23621;50.878;4.584;2022-11-27T16:56:32;15.50;70.70
37782;DHT22;23621;50.878;4.584;2022-11-27T16:58:59;15.50;70.70
37782;DHT22;23621;50.878;4.584;2022-11-27T17:01:33;15.50;70.80
37782;DHT22;23621;50.878;4.584;2022-11-27T17:04:05;15.50;70.90
37782;DHT22;23621;50.878;4.584;2022-11-27T17:06:36;15.50;71.00
37782;DHT22;23621;50.878;4.584;2022-11-27T17:09:05;15.50;71.00
37782;DHT22;23621;50.878;4.584;2022-11-27T17:11:34;15.40;70.90
37782;DHT22;23621;50.878;4.584;2022-11-27T17:14:04;15.40;71.00
37782;DHT22;23621;50.878;4.584;2022-11-27T17:16:31;15.40;71.00
37782;DHT22;23621;50.878;4.584;2022-11-27T17:18:58;15.40;71.00
37782;DHT22;23621;50.878;4.584;2022-11-27T17:21:28;15.40;71.00
37782;DHT22;23621;50.878;4.584;2022-11-27T17:23:57;15.40;71.10
37782;DHT22;23621;50.878;4.584;2022-11-27T17:26:26;15.40;71.00
37782;DHT22;23621;50.878;4.584;2022-11-27T17:28:54;15.40;71.00
37782;DHT22;23621;50.878;4.584;2022-11-27T17:31:27;15.30;71.00
37782;DHT22;23621;50.878;4.584;2022-11-27T17:33:56;15.30;71.00
37782;DHT22;23621;50.878;4.584;2022-11-27T17:36:24;15.30;71.00
37782;DHT22;23621;50.878;4.584;2022-11-27T17:38:51;15.30;71.00
37782;DHT22;23621;50.878;4.584;2022-11-27T17:41:19;15.30;71.10